createdAt,value
2022-09-03T00:10:16.247Z,14.37
2022-09-03T00:25:26.972Z,14.53
2022-09-03T00:40:41.985Z,14.52
2022-09-03T00:55:58.523Z,14.45
2022-09-03T01:11:10.515Z,14.27
2022-09-03T01:26:31.439Z,14.48
2022-09-03T01:42:12.112Z,14.51
2022-09-03T01:57:34.489Z,14.14
2022-09-03T02:12:38.463Z,14.03
2022-09-03T02:27:40.761Z,13.99
2022-09-03T02:42:43.204Z,14.01
2022-09-03T02:57:45.678Z,14.32
2022-09-03T03:12:47.884Z,14.35
2022-09-03T03:27:50.120Z,14.31
2022-09-03T03:42:53.557Z,14.39
2022-09-03T03:57:55.799Z,14.43
2022-09-03T04:12:58.033Z,14.14
2022-09-03T04:28:00.369Z,14.36
2022-09-03T04:43:05.014Z,14.40
2022-09-03T04:58:10.063Z,14.43
2022-09-03T05:13:12.312Z,14.72
2022-09-03T05:28:14.692Z,15.12
2022-09-03T05:43:17.214Z,14.98
2022-09-03T05:58:19.434Z,15.27
2022-09-03T06:13:21.744Z,16.45
2022-09-03T06:28:24.166Z,16.46
2022-09-03T06:43:33.005Z,15.72
2022-09-03T06:58:37.753Z,15.48
2022-09-03T07:13:46.718Z,15.84
2022-09-03T07:28:55.192Z,15.75
2022-09-03T08:17:50.886Z,17.59
2022-09-03T08:32:53.942Z,20.74
2022-09-03T08:48:12.092Z,21.64
2022-09-03T09:03:17.213Z,21.31
2022-09-03T09:18:37.136Z,22.43
2022-09-03T09:33:39.371Z,23.01
2022-09-03T09:48:55.524Z,22.72
2022-09-03T10:04:11.719Z,24.49
2022-09-03T10:19:17.196Z,23.11
2022-09-03T10:34:37.264Z,23.25
2022-09-03T10:49:51.383Z,22.45
2022-09-03T11:04:58.131Z,23.17
2022-09-03T11:20:10.692Z,24.91
2022-09-03T11:35:28.169Z,25.67
2022-09-03T11:50:31.910Z,24.03
2022-09-03T12:05:37.071Z,23.71
2022-09-03T12:20:40.226Z,23.22
2022-09-03T12:35:58.565Z,22.52
2022-09-03T12:51:47.813Z,21.57
2022-09-03T13:06:28.433Z,21.02
2022-09-03T13:21:50.739Z,20.22
2022-09-03T13:37:37.445Z,18.14
2022-09-03T13:52:59.320Z,17.27
2022-09-03T14:08:08.373Z,16.96
2022-09-03T14:23:26.248Z,18.04
2022-09-03T14:38:56.350Z,18.49
2022-09-03T14:54:24.883Z,18.82
2022-09-03T15:09:43.822Z,18.58
2022-09-03T15:25:13.102Z,18.48
2022-09-03T15:40:48.515Z,18.74
2022-09-03T15:56:03.608Z,19.72
2022-09-03T16:11:18.547Z,20.40
2022-09-03T16:26:33.644Z,22.04
2022-09-03T16:41:56.213Z,23.03
2022-09-03T16:57:29.025Z,22.89
2022-09-03T17:12:39.527Z,22.49
2022-09-03T17:28:02.288Z,21.33
2022-09-03T17:43:04.432Z,20.58
2022-09-03T17:58:28.281Z,19.94
2022-09-03T18:13:30.366Z,18.70
2022-09-03T18:29:20.008Z,17.77
2022-09-03T18:45:20.889Z,17.72
2022-09-03T19:00:42.696Z,17.49
2022-09-03T19:16:10.227Z,17.27
2022-09-03T19:32:00.610Z,16.95
2022-09-03T19:47:22.285Z,16.79
2022-09-03T20:02:43.919Z,16.87
2022-09-03T20:17:56.041Z,16.82
2022-09-03T20:33:26.027Z,16.89
2022-09-03T20:49:08.407Z,16.56
2022-09-03T21:04:24.417Z,16.45
2022-09-03T21:19:54.548Z,16.88
2022-09-03T21:35:20.777Z,16.69
2022-09-03T21:50:24.344Z,16.26
2022-09-03T22:05:29.230Z,15.98
2022-09-03T22:20:31.514Z,15.43
2022-09-03T22:35:46.476Z,15.19
2022-09-03T22:51:01.852Z,15.24
2022-09-03T23:06:14.187Z,15.02
2022-09-03T23:21:26.118Z,14.75
2022-09-03T23:52:40.734Z,15.60
